Time;durP1;ratioP1;P1;durP2;ratioP2;P2;SDS_P1;SDS_P2;PMS_P1;PMS_P2;Temp;Humidity;BMP_temperature;BMP_pressure;BME280_temperature;BME280_humidity;BME280_pressure;Samples;Min_cycle;Max_cycle;Signal;HPM_P1;HPM_P2
2023/01/01 00:02:12;;;;;;;95.15;82.95;;;;;;;;;;5009413;28;20056;-60
2023/01/01 00:04:37;;;;;;;76.18;67.63;;;;;;;;;;5009918;28;20060;-63
2023/01/01 00:07:02;;;;;;;82.15;73.28;;;;;;;;;;5013534;28;20029;-63
2023/01/01 00:12:12;;;;;;;30.48;27.85;;;;;;;;;;5011512;28;20037;-59
2023/01/01 00:14:38;;;;;;;55.95;50.10;;;;;;;;;;5011866;28;20026;-59
2023/01/01 00:17:04;;;;;;;59.50;53.20;;;;;;;;;;5011147;28;20029;-59
2023/01/01 00:19:29;;;;;;;60.47;54.20;;;;;;;;;;5010865;28;20061;-60
2023/01/01 00:21:54;;;;;;;55.80;45.33;;;;;;;;;;5013262;28;20080;-62
2023/01/01 00:24:20;;;;;;;78.00;61.33;;;;;;;;;;5012596;28;20041;-59
2023/01/01 00:26:45;;;;;;;66.90;55.35;;;;;;;;;;5014089;28;20037;-59
2023/01/01 00:29:10;;;;;;;50.63;45.35;;;;;;;;;;5012133;28;20080;-61
2023/01/01 00:31:36;;;;;;;35.53;32.03;;;;;;;;;;5011662;28;20547;-58
2023/01/01 00:34:01;;;;;;;33.33;30.10;;;;;;;;;;5013813;28;20403;-61
2023/01/01 00:36:28;;;;;;;44.78;31.13;;;;;;;;;;5014692;28;20385;-61
2023/01/01 00:38:54;;;;;;;30.52;27.52;;;;;;;;;;5006785;28;20049;-58
2023/01/01 00:41:21;;;;;;;27.75;25.35;;;;;;;;;;5013404;28;20370;-62
2023/01/01 00:43:47;;;;;;;33.50;29.50;;;;;;;;;;5012820;28;20475;-58
2023/01/01 00:46:12;;;;;;;38.90;29.35;;;;;;;;;;5014480;28;20053;-61
2023/01/01 00:48:38;;;;;;;28.30;25.40;;;;;;;;;;5012429;28;20038;-61
2023/01/01 00:51:04;;;;;;;27.73;25.08;;;;;;;;;;5011843;28;20592;-61
2023/01/01 00:53:30;;;;;;;26.85;24.60;;;;;;;;;;5010911;28;20936;-62
2023/01/01 00:55:55;;;;;;;28.15;25.52;;;;;;;;;;5012931;28;20523;-62
2023/01/01 00:58:22;;;;;;;26.92;24.75;;;;;;;;;;5012381;28;20026;-58
2023/01/01 01:00:48;;;;;;;42.08;35.28;;;;;;;;;;5012698;28;20045;-61
2023/01/01 01:03:26;;;;;;;30.00;27.17;;;;;;;;;;5017739;28;20087;-58
2023/01/01 01:06:15;;;;;;;65.22;51.53;;;;;;;;;;5014433;28;20119;-58
2023/01/01 01:08:43;;;;;;;43.00;38.33;;;;;;;;;;5012903;28;20136;-58
2023/01/01 01:11:21;;;;;;;44.13;35.00;;;;;;;;;;5017306;28;20040;-61
2023/01/01 01:13:50;;;;;;;22.17;20.25;;;;;;;;;;5016223;28;20025;-58
2023/01/01 01:16:25;;;;;;;22.58;20.40;;;;;;;;;;5019332;28;20033;-58
2023/01/01 01:18:59;;;;;;;16.65;15.27;;;;;;;;;;5017239;28;20037;-58
2023/01/01 01:21:27;;;;;;;15.25;14.13;;;;;;;;;;5017114;28;20029;-59
2023/01/01 01:23:53;;;;;;;18.30;16.73;;;;;;;;;;5014437;28;20197;-58
2023/01/01 01:26:24;;;;;;;21.98;18.90;;;;;;;;;;5015388;28;20107;-60
2023/01/01 01:28:51;;;;;;;18.98;15.57;;;;;;;;;;5014739;28;20041;-61
2023/01/01 01:31:19;;;;;;;19.60;16.42;;;;;;;;;;5014919;28;20053;-58
2023/01/01 01:33:45;;;;;;;18.42;15.80;;;;;;;;;;5015714;28;20038;-58
2023/01/01 01:36:12;;;;;;;18.27;16.35;;;;;;;;;;5012419;28;20038;-58
2023/01/01 01:38:37;;;;;;;18.85;17.23;;;;;;;;;;5015343;28;20351;-58
2023/01/01 01:41:03;;;;;;;19.35;17.73;;;;;;;;;;5016304;28;20033;-62
2023/01/01 01:43:31;;;;;;;18.83;17.23;;;;;;;;;;5013343;28;20034;-61
2023/01/01 01:46:07;;;;;;;18.27;16.67;;;;;;;;;;5016108;28;20040;-62
2023/01/01 01:48:38;;;;;;;19.05;17.15;;;;;;;;;;5015308;28;20487;-57
2023/01/01 01:51:03;;;;;;;;;;;;;;;;;;5015691;28;20033;-57
2023/01/01 01:53:32;;;;;;;19.63;17.58;;;;;;;;;;5016602;28;20321;-56
2023/01/01 01:56:02;;;;;;;19.60;17.83;;;;;;;;;;5014009;28;20115;-57
2023/01/01 01:58:29;;;;;;;20.80;17.15;;;;;;;;;;5014418;28;20037;-57
2023/01/01 02:00:55;;;;;;;20.15;18.15;;;;;;;;;;5015518;28;20025;-57
2023/01/01 02:03:25;;;;;;;19.98;18.27;;;;;;;;;;5015751;28;20630;-57
2023/01/01 02:05:50;;;;;;;19.45;17.88;;;;;;;;;;5015357;28;20106;-60
2023/01/01 02:08:17;;;;;;;20.23;18.27;;;;;;;;;;5015319;28;20077;-57
2023/01/01 02:10:42;;;;;;;21.08;19.38;;;;;;;;;;5012132;28;20038;-57
2023/01/01 02:13:08;;;;;;;19.92;18.33;;;;;;;;;;5014264;28;20187;-57
2023/01/01 02:15:40;;;;;;;20.20;18.38;;;;;;;;;;5015165;28;20094;-57
2023/01/01 02:18:10;;;;;;;22.88;20.75;;;;;;;;;;5014121;28;20052;-60
2023/01/01 02:20:53;;;;;;;23.33;21.10;;;;;;;;;;5012482;28;20159;-61
2023/01/01 02:23:48;;;;;;;23.58;21.30;;;;;;;;;;5015674;28;20123;-57
2023/01/01 02:26:37;;;;;;;22.83;20.75;;;;;;;;;;5014137;28;20033;-58
2023/01/01 02:29:29;;;;;;;21.58;19.65;;;;;;;;;;5016025;28;20045;-57
2023/01/01 02:32:18;;;;;;;20.65;18.65;;;;;;;;;;5016030;28;20049;-57
2023/01/01 02:34:51;;;;;;;20.50;18.60;;;;;;;;;;5014922;28;20037;-60
2023/01/01 02:37:18;;;;;;;21.42;19.33;;;;;;;;;;5014847;28;20094;-60
2023/01/01 02:39:53;;;;;;;20.85;18.83;;;;;;;;;;5016321;28;20065;-60
2023/01/01 02:42:22;;;;;;;26.92;20.60;;;;;;;;;;5013406;28;20042;-57
2023/01/01 02:44:52;;;;;;;21.23;18.73;;;;;;;;;;5012576;28;20410;-57
2023/01/01 02:47:19;;;;;;;22.00;20.02;;;;;;;;;;5013963;28;20029;-57
2023/01/01 02:50:11;;;;;;;20.90;18.77;;;;;;;;;;5011746;28;20121;-60
2023/01/01 02:53:07;;;;;;;29.00;23.20;;;;;;;;;;5011691;28;20073;-61
2023/01/01 02:55:45;;;;;;;20.58;19.08;;;;;;;;;;5010618;28;20064;-61
2023/01/01 03:01:11;;;;;;;19.80;18.23;;;;;;;;;;5013339;28;20033;-61
2023/01/01 03:03:49;;;;;;;15.75;14.32;;;;;;;;;;5012372;28;20030;-57
2023/01/01 03:06:42;;;;;;;18.38;14.90;;;;;;;;;;5015746;28;20037;-60
2023/01/01 03:09:22;;;;;;;18.17;16.67;;;;;;;;;;5005230;28;20543;-61
2023/01/01 03:11:56;;;;;;;16.45;15.02;;;;;;;;;;5011697;28;20049;-57
2023/01/01 03:14:52;;;;;;;15.32;14.13;;;;;;;;;;5013597;28;20045;-57
2023/01/01 03:17:21;;;;;;;17.15;15.65;;;;;;;;;;5014794;28;20065;-57
2023/01/01 03:19:48;;;;;;;15.18;13.63;;;;;;;;;;5013364;28;20033;-61
2023/01/01 03:22:16;;;;;;;15.82;14.38;;;;;;;;;;5014111;28;20554;-60
2023/01/01 03:24:50;;;;;;;16.50;15.10;;;;;;;;;;5013838;28;20824;-57
2023/01/01 03:27:32;;;;;;;16.88;15.48;;;;;;;;;;5011604;28;20030;-60
2023/01/01 03:30:00;;;;;;;16.05;14.75;;;;;;;;;;5012202;28;20037;-62
2023/01/01 03:35:19;;;;;;;14.67;13.60;;;;;;;;;;5013070;28;20112;-60
2023/01/01 03:37:48;;;;;;;15.00;13.75;;;;;;;;;;5016292;28;20272;-60
2023/01/01 03:40:16;;;;;;;14.18;12.88;;;;;;;;;;5011962;28;20060;-61
2023/01/01 03:42:53;;;;;;;14.68;13.55;;;;;;;;;;5013173;28;20034;-60
2023/01/01 03:45:27;;;;;;;17.27;15.85;;;;;;;;;;5016893;28;20033;-61
2023/01/01 03:47:56;;;;;;;17.85;16.38;;;;;;;;;;5011996;28;20037;-60
2023/01/01 03:50:37;;;;;;;16.00;14.68;;;;;;;;;;5013169;28;20033;-61
2023/01/01 03:53:12;;;;;;;20.17;16.67;;;;;;;;;;5010888;28;20160;-57
2023/01/01 03:56:12;;;;;;;16.42;14.95;;;;;;;;;;5012586;28;20037;-57
2023/01/01 03:58:49;;;;;;;16.10;14.70;;;;;;;;;;5013118;28;20411;-57
2023/01/01 04:01:33;;;;;;;16.58;15.10;;;;;;;;;;5012251;28;20063;-57
2023/01/01 04:04:02;;;;;;;17.27;15.82;;;;;;;;;;5013842;28;20698;-57
2023/01/01 04:06:28;;;;;;;25.02;14.90;;;;;;;;;;5013886;28;20179;-57
2023/01/01 04:08:57;;;;;;;17.08;15.73;;;;;;;;;;4998975;28;20125;-57
2023/01/01 04:14:11;;;;;;;15.57;14.05;;;;;;;;;;5012608;28;20026;-57
2023/01/01 04:16:37;;;;;;;17.17;15.80;;;;;;;;;;5012212;28;20029;-57
2023/01/01 04:19:05;;;;;;;14.57;13.60;;;;;;;;;;5009327;28;20061;-57
2023/01/01 04:21:31;;;;;;;15.85;14.65;;;;;;;;;;5011174;28;20038;-59
2023/01/01 04:23:57;;;;;;;14.50;13.40;;;;;;;;;;5009404;28;20141;-62
2023/01/01 04:26:22;;;;;;;13.40;12.43;;;;;;;;;;5009739;28;20030;-62
2023/01/01 04:28:48;;;;;;;15.65;14.45;;;;;;;;;;5008437;28;20501;-62
2023/01/01 04:31:13;;;;;;;15.32;14.23;;;;;;;;;;5008703;28;20025;-62
2023/01/01 04:33:38;;;;;;;15.20;13.73;;;;;;;;;;5010843;28;20021;-61
2023/01/01 04:36:06;;;;;;;13.75;12.75;;;;;;;;;;5011677;28;20033;-63
2023/01/01 04:38:35;;;;;;;15.18;13.77;;;;;;;;;;5011427;28;20801;-63
2023/01/01 04:41:02;;;;;;;14.93;13.73;;;;;;;;;;5015083;28;20021;-61
2023/01/01 04:43:28;;;;;;;14.00;13.10;;;;;;;;;;5014117;28;20029;-62
2023/01/01 04:45:56;;;;;;;15.57;14.05;;;;;;;;;;5011583;28;20036;-62
2023/01/01 04:48:21;;;;;;;15.63;14.20;;;;;;;;;;5014685;28;20116;-61
2023/01/01 04:50:54;;;;;;;13.98;12.93;;;;;;;;;;5011300;28;20126;-61
2023/01/01 04:53:19;;;;;;;15.38;13.85;;;;;;;;;;5010942;28;20341;-61
2023/01/01 04:55:44;;;;;;;12.70;11.90;;;;;;;;;;5014706;28;20052;-64
2023/01/01 04:58:10;;;;;;;13.60;12.65;;;;;;;;;;5012182;28;20045;-64
2023/01/01 05:00:35;;;;;;;13.95;12.88;;;;;;;;;;5013477;28;20030;-64
2023/01/01 05:03:01;;;;;;;14.77;13.77;;;;;;;;;;5013731;28;20030;-62
2023/01/01 05:05:26;;;;;;;15.45;14.20;;;;;;;;;;5013302;28;20030;-62
2023/01/01 05:07:51;;;;;;;14.80;13.75;;;;;;;;;;5014261;28;20045;-63
2023/01/01 05:10:17;;;;;;;12.98;11.98;;;;;;;;;;5014114;28;20048;-62
2023/01/01 05:12:42;;;;;;;17.42;16.08;;;;;;;;;;5014389;28;20053;-62
2023/01/01 05:15:08;;;;;;;13.25;12.23;;;;;;;;;;5012241;28;20095;-62
2023/01/01 05:17:33;;;;;;;13.73;12.73;;;;;;;;;;5013303;28;20041;-63
2023/01/01 05:19:59;;;;;;;14.15;12.38;;;;;;;;;;5012028;28;20520;-63
2023/01/01 05:22:24;;;;;;;13.98;12.98;;;;;;;;;;5012422;28;20833;-62
2023/01/01 05:24:49;;;;;;;12.95;12.05;;;;;;;;;;5011455;28;20045;-62
2023/01/01 05:27:15;;;;;;;13.32;12.43;;;;;;;;;;5015420;28;20034;-62
2023/01/01 05:29:40;;;;;;;16.55;12.85;;;;;;;;;;5014715;28;20447;-61
2023/01/01 05:32:05;;;;;;;12.18;11.38;;;;;;;;;;5014399;28;20169;-62
2023/01/01 05:34:31;;;;;;;13.00;12.00;;;;;;;;;;5014245;28;20026;-61
2023/01/01 05:36:56;;;;;;;13.98;13.02;;;;;;;;;;5015201;28;20448;-61
2023/01/01 05:39:22;;;;;;;13.57;12.63;;;;;;;;;;5012146;28;20079;-60
2023/01/01 05:41:47;;;;;;;13.02;12.13;;;;;;;;;;5013650;28;20092;-62
2023/01/01 05:44:15;;;;;;;11.50;10.75;;;;;;;;;;5013962;28;20718;-61
2023/01/01 05:46:40;;;;;;;12.85;12.05;;;;;;;;;;5015777;28;20034;-62
2023/01/01 05:49:10;;;;;;;12.45;11.55;;;;;;;;;;5012047;28;20490;-61
2023/01/01 05:51:35;;;;;;;12.52;11.60;;;;;;;;;;5014936;28;20037;-62
2023/01/01 05:54:01;;;;;;;13.07;11.85;;;;;;;;;;5014325;28;20399;-61
2023/01/01 05:56:27;;;;;;;10.80;10.10;;;;;;;;;;5016512;28;20040;-61
2023/01/01 05:58:53;;;;;;;13.90;11.95;;;;;;;;;;5013367;28;20036;-60
2023/01/01 06:01:23;;;;;;;12.20;11.35;;;;;;;;;;5013901;28;20041;-61
2023/01/01 06:03:49;;;;;;;12.35;11.45;;;;;;;;;;5011275;28;20029;-61
2023/01/01 06:06:20;;;;;;;10.73;10.02;;;;;;;;;;5014599;28;20026;-61
2023/01/01 06:08:54;;;;;;;12.10;11.30;;;;;;;;;;5015744;28;20079;-63
2023/01/01 06:11:20;;;;;;;12.55;11.70;;;;;;;;;;5014097;28;20395;-62
2023/01/01 06:13:45;;;;;;;11.93;11.13;;;;;;;;;;5013581;28;20029;-61
2023/01/01 06:16:11;;;;;;;11.73;10.93;;;;;;;;;;5012703;28;20033;-62
2023/01/01 06:18:37;;;;;;;10.60;9.90;;;;;;;;;;5015711;28;20032;-61
2023/01/01 06:21:14;;;;;;;11.23;10.30;;;;;;;;;;5014770;28;20042;-58
2023/01/01 06:23:40;;;;;;;10.50;9.75;;;;;;;;;;5013832;28;20058;-58
2023/01/01 06:26:14;;;;;;;10.75;10.05;;;;;;;;;;5012634;28;20794;-58
2023/01/01 06:28:40;;;;;;;10.68;9.90;;;;;;;;;;5014639;28;20041;-61
2023/01/01 06:31:09;;;;;;;10.38;9.68;;;;;;;;;;5014227;28;20061;-61
2023/01/01 06:33:35;;;;;;;12.57;11.48;;;;;;;;;;5014020;28;20061;-61
2023/01/01 06:36:02;;;;;;;10.38;9.68;;;;;;;;;;5014257;28;20061;-61
2023/01/01 06:38:31;;;;;;;11.23;10.43;;;;;;;;;;5016175;28;20065;-61
2023/01/01 06:40:58;;;;;;;10.80;10.10;;;;;;;;;;5016895;28;20040;-57
2023/01/01 06:43:24;;;;;;;12.27;11.48;;;;;;;;;;5014373;28;20061;-57
2023/01/01 06:46:02;;;;;;;11.52;10.73;;;;;;;;;;5014665;28;20295;-58
2023/01/01 06:48:29;;;;;;;11.57;10.68;;;;;;;;;;5014537;28;20029;-61
2023/01/01 06:50:54;;;;;;;11.05;10.35;;;;;;;;;;5015170;28;20037;-57
2023/01/01 06:53:23;;;;;;;11.10;10.40;;;;;;;;;;5014030;28;20171;-60
2023/01/01 06:55:49;;;;;;;10.80;10.10;;;;;;;;;;5016146;28;20406;-61
2023/01/01 06:58:14;;;;;;;11.38;10.68;;;;;;;;;;5014688;28;20029;-58
2023/01/01 07:00:39;;;;;;;11.88;11.13;;;;;;;;;;5012506;28;20045;-58
2023/01/01 07:03:05;;;;;;;11.68;10.88;;;;;;;;;;5011378;28;20034;-61
2023/01/01 07:05:30;;;;;;;11.50;10.80;;;;;;;;;;5015262;28;20092;-57
2023/01/01 07:07:56;;;;;;;11.48;10.77;;;;;;;;;;5014306;28;20102;-58
2023/01/01 07:10:21;;;;;;;13.40;12.50;;;;;;;;;;5014609;28;20037;-62
2023/01/01 07:12:46;;;;;;;11.63;10.93;;;;;;;;;;5012111;28;20084;-59
2023/01/01 07:15:12;;;;;;;12.93;12.13;;;;;;;;;;5014807;28;20033;-61
2023/01/01 07:17:37;;;;;;;13.85;12.85;;;;;;;;;;5010832;28;20037;-62
2023/01/01 07:20:03;;;;;;;12.30;11.48;;;;;;;;;;5011817;28;20120;-59
2023/01/01 07:22:29;;;;;;;13.10;12.20;;;;;;;;;;5013185;28;20030;-58
2023/01/01 07:24:54;;;;;;;13.13;12.25;;;;;;;;;;5011893;28;20040;-59
2023/01/01 07:27:20;;;;;;;13.15;12.32;;;;;;;;;;5010373;28;20068;-59
2023/01/01 07:29:45;;;;;;;12.30;11.50;;;;;;;;;;5014789;28;20076;-61
2023/01/01 07:32:12;;;;;;;12.43;11.63;;;;;;;;;;5011630;28;20570;-62
2023/01/01 07:34:38;;;;;;;12.55;11.75;;;;;;;;;;5011719;28;20061;-62
2023/01/01 07:37:04;;;;;;;11.68;10.98;;;;;;;;;;5012794;28;20037;-61
2023/01/01 07:39:29;;;;;;;12.45;11.65;;;;;;;;;;5015094;28;20376;-62
2023/01/01 07:41:54;;;;;;;12.07;10.82;;;;;;;;;;5012817;28;20030;-62
2023/01/01 07:44:23;;;;;;;11.02;10.32;;;;;;;;;;5013980;28;20030;-62
2023/01/01 07:46:48;;;;;;;11.40;10.70;;;;;;;;;;5014822;28;20094;-62
2023/01/01 07:49:14;;;;;;;12.55;11.55;;;;;;;;;;5011927;28;20034;-59
2023/01/01 07:51:39;;;;;;;14.05;11.18;;;;;;;;;;5013465;28;20476;-59
2023/01/01 07:54:04;;;;;;;12.35;11.55;;;;;;;;;;5013875;28;20034;-61
2023/01/01 07:56:30;;;;;;;12.00;11.30;;;;;;;;;;5014144;28;20581;-59
2023/01/01 07:58:55;;;;;;;12.90;12.00;;;;;;;;;;5013639;28;20396;-59
2023/01/01 08:01:20;;;;;;;12.38;11.57;;;;;;;;;;5020646;28;20060;-59
2023/01/01 08:03:50;;;;;;;12.70;11.70;;;;;;;;;;5013417;28;20033;-61
2023/01/01 08:06:15;;;;;;;11.77;11.07;;;;;;;;;;5013005;28;20034;-61
2023/01/01 08:08:40;;;;;;;11.57;10.88;;;;;;;;;;5012632;28;20119;-61
2023/01/01 08:11:06;;;;;;;12.90;11.90;;;;;;;;;;5010900;28;20072;-61
2023/01/01 08:13:31;;;;;;;11.63;10.93;;;;;;;;;;5017453;28;20367;-62
2023/01/01 08:15:57;;;;;;;12.15;11.45;;;;;;;;;;5017839;28;20049;-62
2023/01/01 08:18:22;;;;;;;12.63;11.73;;;;;;;;;;5015465;28;20030;-61
2023/01/01 08:20:48;;;;;;;12.02;11.32;;;;;;;;;;5014619;28;20073;-62
2023/01/01 08:23:13;;;;;;;11.95;11.25;;;;;;;;;;5016868;28;20037;-58
2023/01/01 08:25:39;;;;;;;11.70;11.00;;;;;;;;;;5016845;28;20037;-58
2023/01/01 08:28:04;;;;;;;11.50;10.70;;;;;;;;;;5017497;28;20459;-58
2023/01/01 08:30:29;;;;;;;13.02;12.23;;;;;;;;;;5016135;28;20082;-59
2023/01/01 08:32:55;;;;;;;13.88;12.70;;;;;;;;;;5013740;28;20370;-62
2023/01/01 08:35:20;;;;;;;12.15;11.45;;;;;;;;;;5016215;28;20056;-62
2023/01/01 08:37:45;;;;;;;10.82;10.13;;;;;;;;;;5016772;28;20032;-62
2023/01/01 08:40:12;;;;;;;12.48;11.68;;;;;;;;;;5018804;28;20092;-62
2023/01/01 08:42:38;;;;;;;12.52;11.70;;;;;;;;;;5016134;28;20034;-61
2023/01/01 08:45:04;;;;;;;12.77;11.98;;;;;;;;;;5014068;28;20049;-62
2023/01/01 08:47:30;;;;;;;11.00;10.30;;;;;;;;;;5015031;28;20030;-59
2023/01/01 08:49:55;;;;;;;12.23;11.43;;;;;;;;;;5014873;28;20029;-58
2023/01/01 08:52:22;;;;;;;11.48;10.77;;;;;;;;;;5020093;28;20033;-58
2023/01/01 08:54:47;;;;;;;10.95;10.25;;;;;;;;;;5015252;28;20037;-61
2023/01/01 08:57:13;;;;;;;12.13;11.30;;;;;;;;;;5016474;28;20044;-62
2023/01/01 08:59:39;;;;;;;11.30;10.60;;;;;;;;;;5016274;28;20420;-49
2023/01/01 09:02:05;;;;;;;11.45;10.75;;;;;;;;;;5014924;28;20178;-49
2023/01/01 09:04:30;;;;;;;11.10;10.40;;;;;;;;;;5016888;28;20044;-48
2023/01/01 09:06:56;;;;;;;11.95;11.25;;;;;;;;;;5016049;28;20037;-50
2023/01/01 09:09:21;;;;;;;11.05;10.25;;;;;;;;;;5023249;28;20029;-53
2023/01/01 09:11:56;;;;;;;11.63;10.77;;;;;;;;;;5018883;28;20125;-62
2023/01/01 09:14:21;;;;;;;11.23;10.52;;;;;;;;;;5016330;28;20062;-52
2023/01/01 09:16:47;;;;;;;11.30;10.57;;;;;;;;;;5016419;28;20076;-62
2023/01/01 09:19:13;;;;;;;10.30;9.70;;;;;;;;;;5016873;28;20037;-62
2023/01/01 09:21:38;;;;;;;11.50;10.80;;;;;;;;;;5017051;28;20072;-61
2023/01/01 09:24:04;;;;;;;10.95;10.25;;;;;;;;;;5011325;28;20157;-52
2023/01/01 09:26:29;;;;;;;11.30;10.52;;;;;;;;;;5014880;28;20029;-61
2023/01/01 09:28:56;;;;;;;10.50;9.80;;;;;;;;;;5016612;28;20486;-61
2023/01/01 09:31:21;;;;;;;9.73;9.13;;;;;;;;;;5016297;28;20084;-51
2023/01/01 09:33:46;;;;;;;10.60;9.90;;;;;;;;;;5016679;28;20077;-50
2023/01/01 09:36:13;;;;;;;10.77;10.07;;;;;;;;;;5014644;28;20029;-52
2023/01/01 09:38:38;;;;;;;11.70;10.90;;;;;;;;;;5016484;28;20042;-52
2023/01/01 09:41:18;;;;;;;12.05;11.25;;;;;;;;;;5011352;28;20033;-52
2023/01/01 09:43:51;;;;;;;10.82;10.15;;;;;;;;;;5013875;28;20045;-50
2023/01/01 09:46:16;;;;;;;11.57;10.88;;;;;;;;;;5017393;28;20029;-53
2023/01/01 09:48:54;;;;;;;11.85;11.05;;;;;;;;;;5011450;28;20037;-49
2023/01/01 09:51:21;;;;;;;12.00;11.30;;;;;;;;;;5017297;28;20032;-53
2023/01/01 09:54:32;;;;;;;11.90;11.20;;;;;;;;;;5014165;28;20068;-61
2023/01/01 09:56:59;;;;;;;11.45;10.75;;;;;;;;;;5018106;28;20055;-52
2023/01/01 09:59:25;;;;;;;11.77;11.07;;;;;;;;;;5014995;28;20128;-62
2023/01/01 10:02:03;;;;;;;12.45;11.65;;;;;;;;;;5013602;28;20538;-62
2023/01/01 10:04:56;;;;;;;12.00;11.30;;;;;;;;;;5017300;28;20044;-62
2023/01/01 10:07:35;;;;;;;12.63;11.85;;;;;;;;;;5015544;28;20041;-61
2023/01/01 10:10:07;;;;;;;13.07;12.30;;;;;;;;;;5023002;28;20047;-52
2023/01/01 10:12:41;;;;;;;12.52;11.82;;;;;;;;;;5019733;28;20044;-48
2023/01/01 10:15:31;;;;;;;14.05;13.25;;;;;;;;;;5014035;28;20514;-62
2023/01/01 10:18:00;;;;;;;12.00;11.30;;;;;;;;;;5013595;28;20042;-48
2023/01/01 10:20:43;;;;;;;12.10;11.40;;;;;;;;;;5014541;28;20075;-52
2023/01/01 10:23:22;;;;;;;12.32;11.60;;;;;;;;;;5014008;28;20052;-52
2023/01/01 10:25:47;;;;;;;13.45;12.60;;;;;;;;;;5019007;28;20034;-50
2023/01/01 10:28:21;;;;;;;12.60;11.90;;;;;;;;;;5013478;28;20052;-61
2023/01/01 10:30:46;;;;;;;14.27;13.38;;;;;;;;;;5011965;28;20037;-51
2023/01/01 10:33:13;;;;;;;14.30;13.50;;;;;;;;;;5013884;28;20040;-51
2023/01/01 10:35:46;;;;;;;14.07;13.27;;;;;;;;;;5012349;28;20057;-53
2023/01/01 10:38:22;;;;;;;13.48;12.68;;;;;;;;;;5011922;28;20041;-62
2023/01/01 10:40:49;;;;;;;15.30;13.20;;;;;;;;;;5015702;28;20107;-54
2023/01/01 10:43:14;;;;;;;14.27;13.43;;;;;;;;;;5014722;28;20033;-53
2023/01/01 10:45:49;;;;;;;14.43;13.63;;;;;;;;;;5014014;28;20472;-53
2023/01/01 10:48:17;;;;;;;13.95;13.15;;;;;;;;;;5015612;28;20585;-62
2023/01/01 10:50:53;;;;;;;13.48;12.65;;;;;;;;;;5021553;28;20121;-62
2023/01/01 10:53:23;;;;;;;12.93;12.13;;;;;;;;;;5013317;28;20033;-62
2023/01/01 10:55:50;;;;;;;13.45;12.65;;;;;;;;;;5012976;28;20061;-52
2023/01/01 10:58:39;;;;;;;13.30;12.50;;;;;;;;;;5090410;27;20520;-48
2023/01/01 11:01:07;;;;;;;15.20;14.30;;;;;;;;;;5087179;28;20046;-52
2023/01/01 11:03:33;;;;;;;13.00;12.20;;;;;;;;;;5088812;28;20027;-49
2023/01/01 11:06:47;;;;;;;13.95;13.13;;;;;;;;;;5080243;28;20028;-61
2023/01/01 11:09:21;;;;;;;14.18;13.00;;;;;;;;;;5044010;28;20060;-61
2023/01/01 11:11:59;;;;;;;14.15;13.35;;;;;;;;;;5075307;28;20052;-61
2023/01/01 11:14:36;;;;;;;14.02;13.23;;;;;;;;;;5073085;28;20027;-61
2023/01/01 11:17:02;;;;;;;13.30;12.50;;;;;;;;;;5081062;28;20123;-61
2023/01/01 11:19:36;;;;;;;13.23;12.43;;;;;;;;;;5088355;28;20039;-61
2023/01/01 11:22:03;;;;;;;13.70;12.90;;;;;;;;;;5085818;28;20106;-61
2023/01/01 11:24:35;;;;;;;14.75;13.73;;;;;;;;;;5086341;28;20036;-61
2023/01/01 11:27:23;;;;;;;14.07;13.27;;;;;;;;;;5081711;28;20020;-62
2023/01/01 11:29:53;;;;;;;13.90;13.02;;;;;;;;;;5080840;28;20036;-61
2023/01/01 11:32:30;;;;;;;14.40;13.50;;;;;;;;;;5080836;28;20035;-61
2023/01/01 11:35:02;;;;;;;13.63;12.82;;;;;;;;;;5082713;28;20281;-62
2023/01/01 11:37:46;;;;;;;14.27;13.38;;;;;;;;;;5088515;28;20031;-62
2023/01/01 11:40:26;;;;;;;14.48;13.43;;;;;;;;;;5083820;28;20046;-62
2023/01/01 11:42:56;;;;;;;13.48;12.68;;;;;;;;;;5081520;28;20036;-62
2023/01/01 11:45:26;;;;;;;13.60;12.70;;;;;;;;;;5081693;28;20024;-62
2023/01/01 11:47:57;;;;;;;13.85;12.75;;;;;;;;;;5084009;28;20036;-62
2023/01/01 11:50:31;;;;;;;15.30;14.15;;;;;;;;;;5085791;28;20444;-62
2023/01/01 11:53:08;;;;;;;14.52;13.35;;;;;;;;;;5081234;28;20040;-62
2023/01/01 11:55:41;;;;;;;13.13;12.35;;;;;;;;;;5079853;28;20044;-62
2023/01/01 11:58:24;;;;;;;14.52;13.73;;;;;;;;;;5082210;28;20025;-62
2023/01/01 12:00:54;;;;;;;14.95;14.05;;;;;;;;;;5083428;28;20051;-62
2023/01/01 12:03:41;;;;;;;16.10;15.05;;;;;;;;;;5082119;28;20102;-62
2023/01/01 12:06:10;;;;;;;16.65;15.65;;;;;;;;;;5079440;28;20086;-62
2023/01/01 12:08:45;;;;;;;15.20;14.32;;;;;;;;;;5075166;28;20044;-62
2023/01/01 12:11:22;;;;;;;14.55;13.75;;;;;;;;;;5069863;28;20040;-62
2023/01/01 12:13:58;;;;;;;15.43;14.43;;;;;;;;;;5068050;28;20075;-61
2023/01/01 12:16:44;;;;;;;16.30;15.38;;;;;;;;;;5068694;28;20032;-62
2023/01/01 12:19:20;;;;;;;15.60;14.68;;;;;;;;;;5066966;28;20060;-63
2023/01/01 12:21:48;;;;;;;16.55;15.50;;;;;;;;;;5067920;28;20040;-63
2023/01/01 12:24:13;;;;;;;16.08;15.18;;;;;;;;;;5071049;28;20051;-63
2023/01/01 12:26:51;;;;;;;15.95;15.05;;;;;;;;;;5069581;28;20358;-63
2023/01/01 12:29:25;;;;;;;15.95;15.00;;;;;;;;;;5067811;28;20044;-62
2023/01/01 12:32:05;;;;;;;18.02;16.60;;;;;;;;;;5070900;28;20047;-61
2023/01/01 12:34:33;;;;;;;16.30;15.40;;;;;;;;;;5070519;28;20417;-61
2023/01/01 12:37:41;;;;;;;17.17;16.17;;;;;;;;;;5069718;28;20031;-62
2023/01/01 12:40:29;;;;;;;18.20;17.20;;;;;;;;;;5068795;28;20163;-63
2023/01/01 12:43:01;;;;;;;17.02;16.08;;;;;;;;;;5069277;28;20032;-62
2023/01/01 12:45:53;;;;;;;18.92;17.85;;;;;;;;;;5065834;28;20041;-62
2023/01/01 12:48:47;;;;;;;16.65;15.68;;;;;;;;;;5070236;28;20724;-62
2023/01/01 12:51:22;;;;;;;18.17;17.17;;;;;;;;;;5070236;28;20048;-62
2023/01/01 12:53:47;;;;;;;17.73;16.73;;;;;;;;;;5068494;28;20044;-62
2023/01/01 12:56:22;;;;;;;17.80;16.80;;;;;;;;;;5068088;28;20092;-62
2023/01/01 12:59:19;;;;;;;17.25;16.30;;;;;;;;;;5061864;28;20063;-62
2023/01/01 13:01:45;;;;;;;17.45;16.45;;;;;;;;;;5062115;28;20092;-62
2023/01/01 13:04:21;;;;;;;18.95;17.90;;;;;;;;;;5070616;28;20090;-62
2023/01/01 13:06:49;;;;;;;19.13;18.02;;;;;;;;;;5069182;28;20024;-62
2023/01/01 13:09:19;;;;;;;18.88;17.85;;;;;;;;;;5072093;28;20568;-61
2023/01/01 13:11:50;;;;;;;17.95;16.95;;;;;;;;;;5072070;28;20059;-62
2023/01/01 13:14:15;;;;;;;19.92;18.80;;;;;;;;;;5067218;28;20128;-61
2023/01/01 13:16:44;;;;;;;18.67;17.58;;;;;;;;;;5068821;28;20112;-62
2023/01/01 13:19:36;;;;;;;20.33;19.23;;;;;;;;;;5065316;28;20038;-62
2023/01/01 13:22:26;;;;;;;19.42;18.35;;;;;;;;;;5066582;28;20103;-62
2023/01/01 13:25:23;;;;;;;18.55;17.45;;;;;;;;;;5068220;28;20036;-60
2023/01/01 13:27:54;;;;;;;18.17;17.17;;;;;;;;;;5061681;28;20119;-62
2023/01/01 13:30:36;;;;;;;19.38;18.30;;;;;;;;;;5059656;28;20025;-62
2023/01/01 13:33:28;;;;;;;20.10;18.92;;;;;;;;;;5068021;28;20064;-62
2023/01/01 13:36:11;;;;;;;18.92;17.85;;;;;;;;;;5071001;28;20328;-62
2023/01/01 13:38:48;;;;;;;18.17;17.17;;;;;;;;;;5066899;28;20578;-62
2023/01/01 13:41:25;;;;;;;18.10;17.10;;;;;;;;;;5068270;28;20031;-62
2023/01/01 13:44:28;;;;;;;18.98;17.88;;;;;;;;;;5066483;28;20083;-62
2023/01/01 13:47:37;;;;;;;17.20;16.10;;;;;;;;;;5068453;28;20111;-62
2023/01/01 13:50:26;;;;;;;17.77;16.77;;;;;;;;;;5067116;28;20036;-62
2023/01/01 13:53:30;;;;;;;17.52;16.52;;;;;;;;;;5084997;28;20090;-62
2023/01/01 13:56:17;;;;;;;17.90;16.80;;;;;;;;;;5067827;28;20119;-62
2023/01/01 13:59:07;;;;;;;17.67;16.60;;;;;;;;;;5064218;28;20501;-62
2023/01/01 14:01:50;;;;;;;16.10;15.20;;;;;;;;;;5062062;28;20047;-62
2023/01/01 14:04:43;;;;;;;16.83;15.85;;;;;;;;;;5069350;28;20620;-62
2023/01/01 14:07:20;;;;;;;18.17;17.08;;;;;;;;;;5069146;28;20036;-62
2023/01/01 14:09:45;;;;;;;17.27;16.23;;;;;;;;;;5059948;28;20602;-62
2023/01/01 14:12:18;;;;;;;17.25;16.25;;;;;;;;;;5062768;28;20241;-62
2023/01/01 14:14:44;;;;;;;17.65;16.45;;;;;;;;;;5069165;28;20032;-62
2023/01/01 14:17:13;;;;;;;18.45;17.40;;;;;;;;;;5068195;28;20043;-62
2023/01/01 14:19:40;;;;;;;19.42;18.35;;;;;;;;;;5067310;28;20038;-62
2023/01/01 14:22:07;;;;;;;18.48;17.40;;;;;;;;;;5080433;28;20043;-62
2023/01/01 14:24:41;;;;;;;18.02;16.92;;;;;;;;;;5067302;28;20063;-62
2023/01/01 14:27:06;;;;;;;17.52;16.50;;;;;;;;;;5065339;28;20433;-62
2023/01/01 14:29:32;;;;;;;17.75;16.75;;;;;;;;;;5066300;28;20061;-62
2023/01/01 14:32:15;;;;;;;18.25;17.25;;;;;;;;;;5068623;28;20035;-62
2023/01/01 14:34:41;;;;;;;17.95;16.70;;;;;;;;;;5068575;28;20036;-62
2023/01/01 14:37:22;;;;;;;14.55;13.75;;;;;;;;;;5067634;28;20100;-62
2023/01/01 14:40:04;;;;;;;14.93;14.02;;;;;;;;;;5068681;28;20127;-62
2023/01/01 14:42:31;;;;;;;14.75;13.95;;;;;;;;;;5070011;28;20033;-62
2023/01/01 14:44:56;;;;;;;15.27;14.20;;;;;;;;;;5068179;28;20585;-62
2023/01/01 14:47:28;;;;;;;14.63;13.82;;;;;;;;;;5079146;28;20059;-62
2023/01/01 14:50:25;;;;;;;13.45;12.65;;;;;;;;;;5064981;28;20405;-62
2023/01/01 14:53:17;;;;;;;13.68;12.75;;;;;;;;;;5061034;28;20086;-63
2023/01/01 14:55:44;;;;;;;14.20;13.30;;;;;;;;;;5055412;28;20028;-62